Time,TemperatureF,DewpointF,PressureIn,WindDirection,WindDirectionDegrees,WindSpeedMPH,WindSpeedGustMPH,Humidity,HourlyPrecipIn,Conditions,Clouds,dailyrainin,SoftwareType,DateUTC
2013-02-03 00:00:00,35.0,33.7,30.20,West,271,0.0,0.0,95,0.00,,,0.00,WeatherTracker,2013-02-03 06:00:00,
2013-02-03 00:05:00,34.8,33.5,30.20,West,271,0.0,0.0,95,0.00,,,0.00,WeatherTracker,2013-02-03 06:05:00,
2013-02-03 00:10:00,34.6,33.3,30.20,West,271,0.0,0.0,95,0.00,,,0.00,WeatherTracker,2013-02-03 06:10:00,
2013-02-03 00:16:00,34.4,33.1,30.20,West,271,0.0,0.0,95,0.00,,,0.00,WeatherTracker,2013-02-03 06:16:00,
2013-02-03 00:21:00,34.4,33.1,30.20,West,271,0.0,0.0,95,0.00,,,0.00,WeatherTracker,2013-02-03 06:21:00,
2013-02-03 00:26:00,34.4,33.1,30.20,West,271,0.0,0.0,95,0.00,,,0.00,WeatherTracker,2013-02-03 06:26:00,
2013-02-03 00:31:00,34.4,33.1,30.20,West,271,0.0,0.0,95,0.00,,,0.00,WeatherTracker,2013-02-03 06:31:00,
2013-02-03 00:36:00,34.4,33.1,30.20,West,271,0.0,0.0,95,0.00,,,0.00,WeatherTracker,2013-02-03 06:36:00,
2013-02-03 00:41:00,34.4,33.1,30.20,West,271,0.0,0.0,95,0.00,,,0.00,WeatherTracker,2013-02-03 06:41:00,
2013-02-03 00:46:00,34.4,33.1,30.19,West,271,0.0,0.0,95,0.00,,,0.00,WeatherTracker,2013-02-03 06:46:00,
2013-02-03 00:51:00,34.3,33.3,30.19,West,271,0.0,0.0,96,0.00,,,0.00,WeatherTracker,2013-02-03 06:51:00,
2013-02-03 00:56:00,34.3,33.3,30.19,West,271,0.0,0.0,96,0.00,,,0.00,WeatherTracker,2013-02-03 06:56:00,
2013-02-03 01:01:00,34.4,33.4,30.19,WSW,257,0.0,0.0,96,0.00,,,0.00,WeatherTracker,2013-02-03 07:01:00,
2013-02-03 01:06:00,34.4,33.4,30.18,WSW,257,0.0,0.0,96,0.00,,,0.00,WeatherTracker,2013-02-03 07:06:00,
2013-02-03 01:11:00,34.4,33.4,30.18,West,260,0.0,0.0,96,0.00,,,0.00,WeatherTracker,2013-02-03 07:11:00,
2013-02-03 01:16:00,34.4,33.4,30.18,West,260,0.0,0.0,96,0.00,,,0.00,WeatherTracker,2013-02-03 07:16:00,
2013-02-03 01:21:00,34.4,33.4,30.18,West,260,0.0,0.0,96,0.00,,,0.00,WeatherTracker,2013-02-03 07:21:00,
2013-02-03 01:26:00,34.4,33.4,30.18,West,260,0.0,0.0,96,0.00,,,0.00,WeatherTracker,2013-02-03 07:26:00,
2013-02-03 01:32:00,34.4,33.4,30.18,West,260,0.0,0.0,96,0.00,,,0.00,WeatherTracker,2013-02-03 07:32:00,
2013-02-03 01:37:00,34.4,33.4,30.18,West,260,0.0,0.0,96,0.00,,,0.00,WeatherTracker,2013-02-03 07:37:00,
2013-02-03 01:42:00,34.4,33.4,30.18,West,260,0.0,0.0,96,0.00,,,0.00,WeatherTracker,2013-02-03 07:42:00,
2013-02-03 01:47:00,34.4,33.4,30.18,West,260,0.0,0.0,96,0.00,,,0.00,WeatherTracker,2013-02-03 07:47:00,
2013-02-03 01:52:00,34.4,33.4,30.18,West,260,0.0,0.0,96,0.00,,,0.00,WeatherTracker,2013-02-03 07:52:00,
2013-02-03 01:57:00,34.4,33.4,30.17,West,260,0.0,0.0,96,0.00,,,0.00,WeatherTracker,2013-02-03 07:57:00,
2013-02-03 02:02:00,34.4,33.4,30.17,WNW,282,0.0,0.0,96,0.00,,,0.00,WeatherTracker,2013-02-03 08:02:00,
2013-02-03 02:07:00,34.4,33.4,30.17,West,264,0.0,0.0,96,0.00,,,0.00,WeatherTracker,2013-02-03 08:07:00,
2013-02-03 02:12:00,34.6,33.6,30.17,West,267,0.0,0.0,96,0.00,,,0.00,WeatherTracker,2013-02-03 08:12:00,
2013-02-03 02:17:00,34.7,33.7,30.17,West,271,0.0,0.0,96,0.00,,,0.00,WeatherTracker,2013-02-03 08:17:00,
2013-02-03 02:22:00,34.8,33.8,30.17,West,271,0.0,0.0,96,0.00,,,0.00,WeatherTracker,2013-02-03 08:22:00,
2013-02-03 02:27:00,34.9,33.9,30.17,West,269,2.0,0.0,96,0.00,,,0.00,WeatherTracker,2013-02-03 08:27:00,
2013-02-03 02:32:00,35.0,34.0,30.17,West,270,0.0,0.0,96,0.00,,,0.00,WeatherTracker,2013-02-03 08:32:00,
2013-02-03 02:37:00,35.0,34.0,30.17,West,271,0.0,0.0,96,0.00,,,0.00,WeatherTracker,2013-02-03 08:37:00,
2013-02-03 02:42:00,35.1,34.1,30.17,West,273,1.0,0.0,96,0.00,,,0.00,WeatherTracker,2013-02-03 08:42:00,
2013-02-03 02:47:00,35.0,34.0,30.17,West,267,0.0,0.0,96,0.00,,,0.00,WeatherTracker,2013-02-03 08:47:00,
2013-02-03 02:52:00,35.1,34.1,30.17,West,278,0.0,0.0,96,0.00,,,0.00,WeatherTracker,2013-02-03 08:52:00,
2013-02-03 02:57:00,35.1,34.1,30.16,West,274,0.0,0.0,96,0.00,,,0.00,WeatherTracker,2013-02-03 08:57:00,
2013-02-03 03:02:00,35.1,34.1,30.16,WSW,240,4.0,0.0,96,0.00,,,0.00,WeatherTracker,2013-02-03 09:02:00,
2013-02-03 03:07:00,35.3,34.3,30.16,West,269,4.0,0.0,96,0.00,,,0.00,WeatherTracker,2013-02-03 09:07:00,
2013-02-03 03:13:00,35.4,34.4,30.16,West,272,0.0,0.0,96,0.00,,,0.00,WeatherTracker,2013-02-03 09:13:00,
2013-02-03 03:17:00,35.4,34.4,30.15,WSW,242,0.0,0.0,96,0.00,,,0.00,WeatherTracker,2013-02-03 09:17:00,
2013-02-03 03:23:00,35.4,34.4,30.15,West,259,0.0,0.0,96,0.00,,,0.00,WeatherTracker,2013-02-03 09:23:00,
2013-02-03 03:28:00,35.2,33.9,30.15,West,259,0.0,0.0,95,0.00,,,0.00,WeatherTracker,2013-02-03 09:28:00,
2013-02-03 03:33:00,35.0,33.7,30.15,WSW,255,0.0,0.0,95,0.00,,,0.00,WeatherTracker,2013-02-03 09:33:00,
2013-02-03 03:38:00,34.8,33.5,30.15,WSW,248,1.0,0.0,95,0.00,,,0.00,WeatherTracker,2013-02-03 09:38:00,
2013-02-03 03:43:00,34.5,33.2,30.15,WSW,248,0.0,0.0,95,0.00,,,0.00,WeatherTracker,2013-02-03 09:43:00,
2013-02-03 03:48:00,34.4,32.9,30.14,SSE,163,0.0,0.0,94,0.00,,,0.00,WeatherTracker,2013-02-03 09:48:00,
2013-02-03 03:53:00,34.4,32.9,30.14,SW,230,0.0,0.0,94,0.00,,,0.00,WeatherTracker,2013-02-03 09:53:00,
2013-02-03 03:58:00,34.4,32.9,30.14,SW,230,0.0,0.0,94,0.00,,,0.00,WeatherTracker,2013-02-03 09:58:00,
2013-02-03 04:03:00,34.1,32.6,30.14,SW,230,0.0,0.0,94,0.00,,,0.00,WeatherTracker,2013-02-03 10:03:00,
2013-02-03 04:08:00,33.9,32.4,30.14,South,190,0.0,0.0,94,0.00,,,0.00,WeatherTracker,2013-02-03 10:08:00,
2013-02-03 04:13:00,33.8,32.3,30.14,SW,232,0.0,0.0,94,0.00,,,0.00,WeatherTracker,2013-02-03 10:13:00,
2013-02-03 04:18:00,33.8,32.3,30.14,SW,232,0.0,0.0,94,0.00,,,0.00,WeatherTracker,2013-02-03 10:18:00,
2013-02-03 04:23:00,34.1,32.6,30.14,WNW,282,1.0,0.0,94,0.00,,,0.00,WeatherTracker,2013-02-03 10:23:00,
2013-02-03 04:28:00,34.4,32.9,30.14,ENE,59,0.0,0.0,94,0.00,,,0.00,WeatherTracker,2013-02-03 10:28:00,
2013-02-03 04:33:00,34.4,32.9,30.14,SSW,193,0.0,0.0,94,0.00,,,0.00,WeatherTracker,2013-02-03 10:33:00,
2013-02-03 04:38:00,34.4,32.9,30.14,SSW,192,0.0,0.0,94,0.00,,,0.00,WeatherTracker,2013-02-03 10:38:00,
2013-02-03 04:43:00,34.4,32.9,30.13,SSW,200,0.0,0.0,94,0.00,,,0.00,WeatherTracker,2013-02-03 10:43:00,
2013-02-03 04:48:00,34.3,32.8,30.13,WSW,243,0.0,0.0,94,0.00,,,0.00,WeatherTracker,2013-02-03 10:48:00,
2013-02-03 04:53:00,34.4,32.9,30.13,SW,216,0.0,0.0,94,0.00,,,0.00,WeatherTracker,2013-02-03 10:53:00,
2013-02-03 04:58:00,34.4,32.9,30.14,WNW,295,3.0,0.0,94,0.00,,,0.00,WeatherTracker,2013-02-03 10:58:00,
2013-02-03 05:03:00,34.4,32.9,30.13,South,173,0.0,0.0,94,0.00,,,0.00,WeatherTracker,2013-02-03 11:03:00,
2013-02-03 05:08:00,34.7,33.2,30.13,West,267,0.0,0.0,94,0.00,,,0.00,WeatherTracker,2013-02-03 11:08:00,
2013-02-03 05:13:00,35.0,33.5,30.13,West,265,0.0,0.0,94,0.00,,,0.00,WeatherTracker,2013-02-03 11:13:00,
2013-02-03 05:18:00,35.2,33.6,30.14,NW,313,0.0,0.0,94,0.00,,,0.00,WeatherTracker,2013-02-03 11:18:00,
2013-02-03 05:23:00,35.5,33.9,30.14,WNW,296,0.0,0.0,94,0.00,,,0.00,WeatherTracker,2013-02-03 11:23:00,
2013-02-03 05:28:00,35.6,33.8,30.14,WNW,295,0.0,0.0,93,0.00,,,0.00,WeatherTracker,2013-02-03 11:28:00,
2013-02-03 05:33:00,35.7,33.9,30.14,WNW,295,0.0,0.0,93,0.00,,,0.00,WeatherTracker,2013-02-03 11:33:00,
2013-02-03 05:38:00,35.6,33.8,30.14,WNW,296,0.0,0.0,93,0.00,,,0.00,WeatherTracker,2013-02-03 11:38:00,
2013-02-03 05:43:00,35.6,33.5,30.14,WNW,290,0.0,0.0,92,0.00,,,0.00,WeatherTracker,2013-02-03 11:43:00,
2013-02-03 05:49:00,35.5,33.4,30.13,WNW,290,0.0,0.0,92,0.00,,,0.00,WeatherTracker,2013-02-03 11:49:00,
2013-02-03 05:54:00,35.3,33.2,30.13,NW,312,0.0,0.0,92,0.00,,,0.00,WeatherTracker,2013-02-03 11:54:00,
2013-02-03 05:59:00,35.1,32.7,30.13,WNW,292,1.0,0.0,91,0.00,,,0.00,WeatherTracker,2013-02-03 11:59:00,
2013-02-03 06:04:00,35.0,32.6,30.13,WNW,299,0.0,0.0,91,0.00,,,0.00,WeatherTracker,2013-02-03 12:04:00,
2013-02-03 06:09:00,35.0,32.9,30.12,SSW,196,0.0,0.0,92,0.00,,,0.00,WeatherTracker,2013-02-03 12:09:00,
2013-02-03 06:14:00,35.0,32.9,30.12,West,261,0.0,0.0,92,0.00,,,0.00,WeatherTracker,2013-02-03 12:14:00,
2013-02-03 06:19:00,35.0,32.9,30.12,SE,136,0.0,0.0,92,0.00,,,0.00,WeatherTracker,2013-02-03 12:19:00,
2013-02-03 06:24:00,35.1,33.0,30.12,SSE,148,0.0,0.0,92,0.00,,,0.00,WeatherTracker,2013-02-03 12:24:00,
2013-02-03 06:29:00,35.1,33.0,30.12,NNE,31,0.0,0.0,92,0.00,,,0.00,WeatherTracker,2013-02-03 12:29:00,
2013-02-03 06:34:00,35.1,33.0,30.12,South,169,0.0,0.0,92,0.00,,,0.00,WeatherTracker,2013-02-03 12:34:00,
2013-02-03 06:39:00,35.0,32.6,30.12,South,170,0.0,0.0,91,0.00,,,0.00,WeatherTracker,2013-02-03 12:39:00,
2013-02-03 06:44:00,34.7,32.3,30.12,NE,39,0.0,0.0,91,0.00,,,0.00,WeatherTracker,2013-02-03 12:44:00,
2013-02-03 06:49:00,34.4,32.1,30.12,SE,124,3.0,0.0,91,0.00,,,0.00,WeatherTracker,2013-02-03 12:49:00,
2013-02-03 06:54:00,34.5,32.1,30.12,SSE,161,2.0,0.0,91,0.00,,,0.00,WeatherTracker,2013-02-03 12:54:00,
2013-02-03 06:59:00,35.0,32.9,30.12,West,271,0.0,0.0,92,0.00,,,0.00,WeatherTracker,2013-02-03 12:59:00,
2013-02-03 07:04:00,35.8,33.4,30.12,West,276,5.0,0.0,91,0.00,,,0.00,WeatherTracker,2013-02-03 13:04:00,
2013-02-03 07:09:00,36.8,34.1,30.12,ESE,115,6.0,0.0,90,0.00,,,0.00,WeatherTracker,2013-02-03 13:09:00,
2013-02-03 07:14:00,37.4,34.2,30.12,WNW,290,3.0,0.0,88,0.00,,,0.00,WeatherTracker,2013-02-03 13:14:00,
2013-02-03 07:19:00,38.0,34.2,30.13,ESE,115,4.0,0.0,86,0.00,,,0.00,WeatherTracker,2013-02-03 13:19:00,
2013-02-03 07:24:00,38.3,34.2,30.13,WSW,246,2.0,0.0,85,0.00,,,0.00,WeatherTracker,2013-02-03 13:24:00,
2013-02-03 07:29:00,38.6,34.2,30.14,NW,304,4.0,0.0,84,0.00,,,0.00,WeatherTracker,2013-02-03 13:29:00,
2013-02-03 07:34:00,38.8,34.1,30.14,WNW,286,9.0,0.0,83,0.00,,,0.00,WeatherTracker,2013-02-03 13:34:00,
2013-02-03 07:39:00,39.1,34.1,30.14,WNW,282,5.0,0.0,82,0.00,,,0.00,WeatherTracker,2013-02-03 13:39:00,
2013-02-03 07:45:00,39.3,34.0,30.14,WSW,251,1.0,0.0,81,0.00,,,0.00,WeatherTracker,2013-02-03 13:45:00,
2013-02-03 07:50:00,39.3,34.3,30.14,WNW,291,5.0,0.0,82,0.00,,,0.00,WeatherTracker,2013-02-03 13:50:00,
2013-02-03 07:55:00,39.3,34.3,30.15,NW,315,0.0,0.0,82,0.00,,,0.00,WeatherTracker,2013-02-03 13:55:00,
2013-02-03 08:00:00,39.3,34.3,30.14,West,273,3.0,0.0,82,0.00,,,0.00,WeatherTracker,2013-02-03 14:00:00,
2013-02-03 08:05:00,39.3,34.3,30.15,WNW,293,6.0,0.0,82,0.00,,,0.00,WeatherTracker,2013-02-03 14:05:00,
2013-02-03 08:10:00,39.3,34.3,30.15,West,281,1.0,0.0,82,0.00,,,0.00,WeatherTracker,2013-02-03 14:10:00,
2013-02-03 08:15:00,39.4,34.7,30.15,West,272,0.0,0.0,83,0.00,,,0.00,WeatherTracker,2013-02-03 14:15:00,
2013-02-03 08:20:00,39.5,34.8,30.15,West,267,3.0,0.0,83,0.00,,,0.00,WeatherTracker,2013-02-03 14:20:00,
2013-02-03 08:25:00,39.7,35.0,30.15,NW,310,7.0,0.0,83,0.00,,,0.00,WeatherTracker,2013-02-03 14:25:00,
2013-02-03 08:30:00,39.9,34.9,30.15,NW,318,0.0,0.0,82,0.00,,,0.00,WeatherTracker,2013-02-03 14:30:00,
2013-02-03 08:35:00,40.1,35.1,30.15,West,262,5.0,0.0,82,0.00,,,0.00,WeatherTracker,2013-02-03 14:35:00,
2013-02-03 08:40:00,40.2,35.2,30.15,WNW,286,5.0,0.0,82,0.00,,,0.00,WeatherTracker,2013-02-03 14:40:00,
2013-02-03 08:45:00,40.3,34.9,30.15,WNW,283,4.0,0.0,81,0.00,,,0.00,WeatherTracker,2013-02-03 14:45:00,
2013-02-03 08:50:00,40.4,35.3,30.15,WSW,256,5.0,0.0,82,0.00,,,0.00,WeatherTracker,2013-02-03 14:50:00,
2013-02-03 08:55:00,40.5,35.1,30.15,WNW,297,5.0,0.0,81,0.00,,,0.00,WeatherTracker,2013-02-03 14:55:00,
2013-02-03 09:00:00,40.6,35.5,30.15,West,272,4.0,0.0,82,0.00,,,0.00,WeatherTracker,2013-02-03 15:00:00,
2013-02-03 09:05:00,40.8,35.7,30.15,WNW,287,4.0,0.0,82,0.00,,,0.00,WeatherTracker,2013-02-03 15:05:00,
2013-02-03 09:11:00,41.0,36.2,30.15,West,263,6.0,0.0,83,0.00,,,0.00,WeatherTracker,2013-02-03 15:11:00,
2013-02-03 09:16:00,41.2,36.1,30.16,NW,322,3.0,0.0,82,0.00,,,0.00,WeatherTracker,2013-02-03 15:16:00,
2013-02-03 09:21:00,41.5,36.4,30.16,West,260,6.0,0.0,82,0.00,,,0.00,WeatherTracker,2013-02-03 15:21:00,
2013-02-03 09:26:00,41.9,36.5,30.16,NW,310,9.0,0.0,81,0.00,,,0.00,WeatherTracker,2013-02-03 15:26:00,
2013-02-03 09:31:00,42.2,36.5,30.16,WNW,295,9.0,0.0,80,0.00,,,0.00,WeatherTracker,2013-02-03 15:31:00,
2013-02-03 09:36:00,42.5,36.5,30.16,WNW,299,3.0,0.0,79,0.00,,,0.00,WeatherTracker,2013-02-03 15:36:00,
2013-02-03 09:41:00,42.9,36.8,30.16,WNW,290,2.0,0.0,79,0.00,,,0.00,WeatherTracker,2013-02-03 15:41:00,
2013-02-03 09:46:00,43.2,36.5,30.16,NNW,339,2.0,0.0,77,0.00,,,0.00,WeatherTracker,2013-02-03 15:46:00,
2013-02-03 09:51:00,43.6,36.2,30.16,West,277,5.0,0.0,75,0.00,,,0.00,WeatherTracker,2013-02-03 15:51:00,
2013-02-03 09:56:00,43.8,36.4,30.16,NNW,329,5.0,0.0,75,0.00,,,0.00,WeatherTracker,2013-02-03 15:56:00,
2013-02-03 10:01:00,44.0,35.9,30.16,WNW,284,9.0,0.0,73,0.00,,,0.00,WeatherTracker,2013-02-03 16:01:00,
2013-02-03 10:06:00,44.0,36.3,30.16,WSW,240,3.0,0.0,74,0.00,,,0.00,WeatherTracker,2013-02-03 16:06:00,
2013-02-03 10:11:00,44.2,36.1,30.16,WSW,256,3.0,0.0,73,0.00,,,0.00,WeatherTracker,2013-02-03 16:11:00,
2013-02-03 10:16:00,44.5,36.7,30.16,WNW,295,3.0,0.0,74,0.00,,,0.00,WeatherTracker,2013-02-03 16:16:00,
2013-02-03 10:21:00,44.9,36.8,30.16,NNW,331,5.0,0.0,73,0.00,,,0.00,WeatherTracker,2013-02-03 16:21:00,
2013-02-03 10:26:00,45.2,35.6,30.16,WNW,298,2.0,0.0,69,0.00,,,0.00,WeatherTracker,2013-02-03 16:26:00,
2013-02-03 10:31:00,45.1,35.2,30.15,NW,307,2.0,0.0,68,0.00,,,0.00,WeatherTracker,2013-02-03 16:31:00,
2013-02-03 10:36:00,45.2,35.3,30.15,WNW,298,4.0,0.0,68,0.00,,,0.00,WeatherTracker,2013-02-03 16:36:00,
2013-02-03 10:41:00,45.3,35.4,30.14,WNW,299,5.0,0.0,68,0.00,,,0.00,WeatherTracker,2013-02-03 16:41:00,
2013-02-03 10:47:00,45.4,34.7,30.15,West,280,4.0,0.0,66,0.00,,,0.00,WeatherTracker,2013-02-03 16:47:00,
2013-02-03 10:52:00,45.6,34.9,30.14,WSW,256,2.0,0.0,66,0.00,,,0.00,WeatherTracker,2013-02-03 16:52:00,
2013-02-03 10:57:00,45.9,34.8,30.14,WNW,284,5.0,0.0,65,0.00,,,0.00,WeatherTracker,2013-02-03 16:57:00,
2013-02-03 11:02:00,46.1,34.6,30.14,West,281,7.0,0.0,64,0.00,,,0.00,WeatherTracker,2013-02-03 17:02:00,
2013-02-03 11:07:00,46.4,34.5,30.14,NW,308,4.0,0.0,63,0.00,,,0.00,WeatherTracker,2013-02-03 17:07:00,
2013-02-03 11:12:00,46.7,34.0,30.14,West,270,6.0,0.0,61,0.00,,,0.00,WeatherTracker,2013-02-03 17:12:00,
2013-02-03 11:17:00,46.8,34.5,30.14,WNW,287,4.0,0.0,62,0.00,,,0.00,WeatherTracker,2013-02-03 17:17:00,
2013-02-03 11:22:00,47.0,34.7,30.14,NNW,327,6.0,0.0,62,0.00,,,0.00,WeatherTracker,2013-02-03 17:22:00,
2013-02-03 11:27:00,47.1,33.5,30.14,NW,325,4.0,0.0,59,0.00,,,0.00,WeatherTracker,2013-02-03 17:27:00,
2013-02-03 11:32:00,47.2,33.2,30.13,NW,306,0.0,0.0,58,0.00,,,0.00,WeatherTracker,2013-02-03 17:32:00,
2013-02-03 11:37:00,47.3,33.3,30.13,NW,309,3.0,0.0,58,0.00,,,0.00,WeatherTracker,2013-02-03 17:37:00,
2013-02-03 11:42:00,47.4,33.4,30.14,WNW,303,10.0,0.0,58,0.00,,,0.00,WeatherTracker,2013-02-03 17:42:00,
2013-02-03 11:47:00,47.4,32.9,30.14,WNW,303,16.0,0.0,57,0.00,,,0.00,WeatherTracker,2013-02-03 17:47:00,
2013-02-03 11:52:00,47.4,32.9,30.13,WNW,299,6.0,0.0,57,0.00,,,0.00,WeatherTracker,2013-02-03 17:52:00,
2013-02-03 11:57:00,47.4,32.5,30.13,NNW,338,10.0,0.0,56,0.00,,,0.00,WeatherTracker,2013-02-03 17:57:00,
2013-02-03 12:02:00,47.4,32.5,30.13,NNW,336,4.0,0.0,56,0.00,,,0.00,WeatherTracker,2013-02-03 18:02:00,
2013-02-03 12:07:00,47.7,32.8,30.13,WSW,257,10.0,0.0,56,0.00,,,0.00,WeatherTracker,2013-02-03 18:07:00,
2013-02-03 12:12:00,47.9,32.5,30.12,WNW,297,7.0,0.0,55,0.00,,,0.00,WeatherTracker,2013-02-03 18:12:00,
2013-02-03 12:17:00,47.9,32.1,30.12,West,268,7.0,0.0,54,0.00,,,0.00,WeatherTracker,2013-02-03 18:17:00,
2013-02-03 12:22:00,48.1,32.7,30.12,WSW,238,5.0,0.0,55,0.00,,,0.00,WeatherTracker,2013-02-03 18:22:00,
2013-02-03 12:27:00,48.1,32.7,30.11,WSW,250,9.0,0.0,55,0.00,,,0.00,WeatherTracker,2013-02-03 18:27:00,
2013-02-03 12:32:00,48.2,32.8,30.11,NNW,340,7.0,0.0,55,0.00,,,0.00,WeatherTracker,2013-02-03 18:32:00,
2013-02-03 12:37:00,48.3,33.3,30.11,NW,319,4.0,0.0,56,0.00,,,0.00,WeatherTracker,2013-02-03 18:37:00,
2013-02-03 12:42:00,48.5,33.5,30.11,WSW,252,7.0,0.0,56,0.00,,,0.00,WeatherTracker,2013-02-03 18:42:00,
2013-02-03 12:47:00,48.6,33.2,30.10,WNW,290,11.0,0.0,55,0.00,,,0.00,WeatherTracker,2013-02-03 18:47:00,
2013-02-03 12:53:00,48.8,32.4,30.10,NNE,14,4.0,0.0,53,0.00,,,0.00,WeatherTracker,2013-02-03 18:53:00,
2013-02-03 12:58:00,48.8,32.0,30.09,WNW,290,11.0,0.0,52,0.00,,,0.00,WeatherTracker,2013-02-03 18:58:00,
2013-02-03 13:03:00,49.2,32.3,30.10,WNW,282,5.0,0.0,52,0.00,,,0.00,WeatherTracker,2013-02-03 19:03:00,
2013-02-03 13:08:00,49.6,32.7,30.10,West,269,11.0,0.0,52,0.00,,,0.00,WeatherTracker,2013-02-03 19:08:00,
2013-02-03 13:13:00,49.8,31.4,30.10,West,265,3.0,0.0,49,0.00,,,0.00,WeatherTracker,2013-02-03 19:13:00,
2013-02-03 13:18:00,50.0,32.6,30.10,NNW,335,5.0,0.0,51,0.00,,,0.00,WeatherTracker,2013-02-03 19:18:00,
2013-02-03 13:23:00,50.3,32.4,30.10,NW,321,8.0,0.0,50,0.00,,,0.00,WeatherTracker,2013-02-03 19:23:00,
2013-02-03 13:28:00,50.4,32.5,30.10,NNW,338,4.0,0.0,50,0.00,,,0.00,WeatherTracker,2013-02-03 19:28:00,
2013-02-03 13:33:00,50.7,31.7,30.10,WNW,287,3.0,0.0,48,0.00,,,0.00,WeatherTracker,2013-02-03 19:33:00,
2013-02-03 13:38:00,50.8,30.8,30.10,West,263,10.0,0.0,46,0.00,,,0.00,WeatherTracker,2013-02-03 19:38:00,
2013-02-03 13:43:00,50.8,30.8,30.11,West,265,7.0,0.0,46,0.00,,,0.00,WeatherTracker,2013-02-03 19:43:00,
2013-02-03 13:48:00,50.8,32.3,30.10,WNW,291,4.0,0.0,49,0.00,,,0.00,WeatherTracker,2013-02-03 19:48:00,
2013-02-03 13:53:00,51.2,31.7,30.11,West,267,14.0,0.0,47,0.00,,,0.00,WeatherTracker,2013-02-03 19:53:00,
2013-02-03 13:58:00,51.4,31.3,30.11,NW,320,12.0,0.0,46,0.00,,,0.00,WeatherTracker,2013-02-03 19:58:00,
2013-02-03 14:03:00,51.4,31.9,30.11,NW,317,6.0,0.0,47,0.00,,,0.00,WeatherTracker,2013-02-03 20:03:00,
2013-02-03 14:08:00,51.5,32.5,30.11,NW,305,6.0,0.0,48,0.00,,,0.00,WeatherTracker,2013-02-03 20:08:00,
2013-02-03 14:13:00,51.9,32.8,30.11,West,276,5.0,0.0,48,0.00,,,0.00,WeatherTracker,2013-02-03 20:13:00,
2013-02-03 14:18:00,52.1,32.5,30.11,WNW,300,6.0,0.0,47,0.00,,,0.00,WeatherTracker,2013-02-03 20:18:00,
2013-02-03 14:23:00,52.1,32.5,30.11,NNW,334,7.0,0.0,47,0.00,,,0.00,WeatherTracker,2013-02-03 20:23:00,
2013-02-03 14:28:00,51.9,32.3,30.11,WNW,292,10.0,0.0,47,0.00,,,0.00,WeatherTracker,2013-02-03 20:28:00,
2013-02-03 14:33:00,51.8,32.2,30.11,WNW,291,11.0,0.0,47,0.00,,,0.00,WeatherTracker,2013-02-03 20:33:00,
2013-02-03 14:38:00,51.8,32.7,30.11,NNW,336,7.0,0.0,48,0.00,,,0.00,WeatherTracker,2013-02-03 20:38:00,
2013-02-03 14:43:00,51.8,32.7,30.11,WNW,289,4.0,0.0,48,0.00,,,0.00,WeatherTracker,2013-02-03 20:43:00,
2013-02-03 14:48:00,51.9,31.8,30.11,NNW,338,3.0,0.0,46,0.00,,,0.00,WeatherTracker,2013-02-03 20:48:00,
2013-02-03 14:53:00,51.9,32.3,30.11,WNW,298,7.0,0.0,47,0.00,,,0.00,WeatherTracker,2013-02-03 20:53:00,
2013-02-03 14:59:00,52.1,33.0,30.11,WSW,257,4.0,0.0,48,0.00,,,0.00,WeatherTracker,2013-02-03 20:59:00,
2013-02-03 15:04:00,52.1,32.0,30.11,SW,234,7.0,0.0,46,0.00,,,0.00,WeatherTracker,2013-02-03 21:04:00,
2013-02-03 15:09:00,52.1,32.5,30.11,NNW,333,1.0,0.0,47,0.00,,,0.00,WeatherTracker,2013-02-03 21:09:00,
2013-02-03 15:14:00,52.1,32.0,30.11,NW,323,6.0,0.0,46,0.00,,,0.00,WeatherTracker,2013-02-03 21:14:00,
2013-02-03 15:19:00,52.0,31.9,30.10,WSW,244,9.0,0.0,46,0.00,,,0.00,WeatherTracker,2013-02-03 21:19:00,
2013-02-03 15:24:00,51.7,31.6,30.10,WNW,292,11.0,0.0,46,0.00,,,0.00,WeatherTracker,2013-02-03 21:24:00,
2013-02-03 15:29:00,51.5,31.4,30.10,NNW,329,3.0,0.0,46,0.00,,,0.00,WeatherTracker,2013-02-03 21:29:00,
2013-02-03 15:34:00,51.3,30.7,30.11,WNW,301,2.0,0.0,45,0.00,,,0.00,WeatherTracker,2013-02-03 21:34:00,
2013-02-03 15:39:00,51.4,31.9,30.11,West,271,6.0,0.0,47,0.00,,,0.00,WeatherTracker,2013-02-03 21:39:00,
2013-02-03 15:44:00,51.4,31.9,30.11,NNW,332,2.0,0.0,47,0.00,,,0.00,WeatherTracker,2013-02-03 21:44:00,
2013-02-03 15:49:00,51.3,31.2,30.11,North,9,3.0,0.0,46,0.00,,,0.00,WeatherTracker,2013-02-03 21:49:00,
2013-02-03 15:54:00,51.2,31.1,30.11,West,267,4.0,0.0,46,0.00,,,0.00,WeatherTracker,2013-02-03 21:54:00,
2013-02-03 15:59:00,51.1,31.6,30.11,WNW,296,10.0,0.0,47,0.00,,,0.00,WeatherTracker,2013-02-03 21:59:00,
2013-02-03 16:04:00,50.9,30.9,30.11,WNW,288,7.0,0.0,46,0.00,,,0.00,WeatherTracker,2013-02-03 22:04:00,
2013-02-03 16:09:00,50.8,30.8,30.11,NNW,346,0.0,0.0,46,0.00,,,0.00,WeatherTracker,2013-02-03 22:09:00,
2013-02-03 16:14:00,50.7,30.7,30.11,WNW,296,0.0,0.0,46,0.00,,,0.00,WeatherTracker,2013-02-03 22:14:00,
2013-02-03 16:19:00,50.6,30.6,30.11,WNW,298,11.0,0.0,46,0.00,,,0.00,WeatherTracker,2013-02-03 22:19:00,
2013-02-03 16:24:00,50.5,30.5,30.11,North,5,6.0,0.0,46,0.00,,,0.00,WeatherTracker,2013-02-03 22:24:00,
2013-02-03 16:29:00,50.4,30.9,30.12,NW,309,11.0,0.0,47,0.00,,,0.00,WeatherTracker,2013-02-03 22:29:00,
2013-02-03 16:34:00,50.3,29.8,30.12,NW,318,1.0,0.0,45,0.00,,,0.00,WeatherTracker,2013-02-03 22:34:00,
2013-02-03 16:39:00,50.1,29.6,30.12,NW,304,4.0,0.0,45,0.00,,,0.00,WeatherTracker,2013-02-03 22:39:00,
2013-02-03 16:44:00,50.0,30.0,30.12,NNW,331,1.0,0.0,46,0.00,,,0.00,WeatherTracker,2013-02-03 22:44:00,
2013-02-03 16:49:00,49.9,29.4,30.12,NW,310,3.0,0.0,45,0.00,,,0.00,WeatherTracker,2013-02-03 22:49:00,
2013-02-03 16:54:00,49.7,29.8,30.12,NNW,333,0.0,0.0,46,0.00,,,0.00,WeatherTracker,2013-02-03 22:54:00,
2013-02-03 16:59:00,49.5,29.6,30.13,NW,307,0.0,0.0,46,0.00,,,0.00,WeatherTracker,2013-02-03 22:59:00,
2013-02-03 17:04:00,49.3,29.9,30.12,WNW,291,6.0,0.0,47,0.00,,,0.00,WeatherTracker,2013-02-03 23:04:00,
2013-02-03 17:09:00,49.2,29.3,30.12,NNW,331,2.0,0.0,46,0.00,,,0.00,WeatherTracker,2013-02-03 23:09:00,
2013-02-03 17:15:00,48.9,29.6,30.12,WNW,286,4.0,0.0,47,0.00,,,0.00,WeatherTracker,2013-02-03 23:15:00,
2013-02-03 17:19:00,48.6,29.3,30.12,NW,308,3.0,0.0,47,0.00,,,0.00,WeatherTracker,2013-02-03 23:19:00,
2013-02-03 17:25:00,48.3,29.0,30.13,WNW,299,9.0,0.0,47,0.00,,,0.00,WeatherTracker,2013-02-03 23:25:00,
2013-02-03 17:30:00,47.9,29.2,30.13,NW,306,0.0,0.0,48,0.00,,,0.00,WeatherTracker,2013-02-03 23:30:00,
2013-02-03 17:35:00,47.6,28.9,30.13,NW,323,0.0,0.0,48,0.00,,,0.00,WeatherTracker,2013-02-03 23:35:00,
2013-02-03 17:40:00,47.3,28.6,30.13,WNW,287,0.0,0.0,48,0.00,,,0.00,WeatherTracker,2013-02-03 23:40:00,
2013-02-03 17:45:00,47.0,28.8,30.13,NW,318,4.0,0.0,49,0.00,,,0.00,WeatherTracker,2013-02-03 23:45:00,
2013-02-03 17:50:00,46.7,28.6,30.13,WNW,292,4.0,0.0,49,0.00,,,0.00,WeatherTracker,2013-02-03 23:50:00,
2013-02-03 17:55:00,46.4,28.8,30.13,NW,311,0.0,0.0,50,0.00,,,0.00,WeatherTracker,2013-02-03 23:55:00,
2013-02-03 18:00:00,46.2,28.1,30.13,WNW,301,1.0,0.0,49,0.00,,,0.00,WeatherTracker,2013-02-04 00:00:00,
2013-02-03 18:05:00,46.0,28.4,30.13,North,355,0.0,0.0,50,0.00,,,0.00,WeatherTracker,2013-02-04 00:05:00,
2013-02-03 18:10:00,45.8,28.2,30.14,WNW,295,1.0,0.0,50,0.00,,,0.00,WeatherTracker,2013-02-04 00:10:00,
2013-02-03 18:15:00,45.6,28.5,30.14,NNW,344,4.0,0.0,51,0.00,,,0.00,WeatherTracker,2013-02-04 00:15:00,
2013-02-03 18:20:00,45.5,28.4,30.14,North,360,4.0,0.0,51,0.00,,,0.00,WeatherTracker,2013-02-04 00:20:00,
2013-02-03 18:25:00,45.5,28.4,30.14,NW,318,0.0,0.0,51,0.00,,,0.00,WeatherTracker,2013-02-04 00:25:00,
2013-02-03 18:30:00,45.4,28.3,30.14,West,281,5.0,0.0,51,0.00,,,0.00,WeatherTracker,2013-02-04 00:30:00,
2013-02-03 18:35:00,45.2,28.2,30.15,NW,308,1.0,0.0,51,0.00,,,0.00,WeatherTracker,2013-02-04 00:35:00,
2013-02-03 18:40:00,45.2,28.6,30.14,NW,307,2.0,0.0,52,0.00,,,0.00,WeatherTracker,2013-02-04 00:40:00,
2013-02-03 18:45:00,45.1,28.1,30.15,WNW,302,0.0,0.0,51,0.00,,,0.00,WeatherTracker,2013-02-04 00:45:00,
2013-02-03 18:50:00,45.0,28.4,30.15,NW,311,2.0,0.0,52,0.00,,,0.00,WeatherTracker,2013-02-04 00:50:00,
2013-02-03 18:55:00,44.9,28.4,30.14,NW,306,0.0,0.0,52,0.00,,,0.00,WeatherTracker,2013-02-04 00:55:00,
2013-02-03 19:00:00,44.7,28.2,30.15,NW,306,3.0,0.0,52,0.00,,,0.00,WeatherTracker,2013-02-04 01:00:00,
2013-02-03 19:05:00,44.7,28.2,30.15,North,360,3.0,0.0,52,0.00,,,0.00,WeatherTracker,2013-02-04 01:05:00,
2013-02-03 19:10:00,44.5,28.0,30.15,NW,304,0.0,0.0,52,0.00,,,0.00,WeatherTracker,2013-02-04 01:10:00,
2013-02-03 19:16:00,44.4,28.4,30.15,NW,311,8.0,0.0,53,0.00,,,0.00,WeatherTracker,2013-02-04 01:16:00,
2013-02-03 19:21:00,44.3,28.3,30.15,North,360,3.0,0.0,53,0.00,,,0.00,WeatherTracker,2013-02-04 01:21:00,
2013-02-03 19:26:00,44.1,28.5,30.15,North,355,2.0,0.0,54,0.00,,,0.00,WeatherTracker,2013-02-04 01:26:00,
2013-02-03 19:31:00,43.9,28.3,30.16,NNW,341,2.0,0.0,54,0.00,,,0.00,WeatherTracker,2013-02-04 01:31:00,
2013-02-03 19:36:00,43.7,28.2,30.16,NNW,337,0.0,0.0,54,0.00,,,0.00,WeatherTracker,2013-02-04 01:36:00,
2013-02-03 19:41:00,43.5,28.0,30.16,North,9,1.0,0.0,54,0.00,,,0.00,WeatherTracker,2013-02-04 01:41:00,
2013-02-03 19:46:00,43.3,28.2,30.16,North,360,0.0,0.0,55,0.00,,,0.00,WeatherTracker,2013-02-04 01:46:00,
2013-02-03 19:51:00,43.2,28.1,30.16,NW,311,0.0,0.0,55,0.00,,,0.00,WeatherTracker,2013-02-04 01:51:00,
2013-02-03 19:56:00,43.0,28.0,30.16,NNW,338,3.0,0.0,55,0.00,,,0.00,WeatherTracker,2013-02-04 01:56:00,
2013-02-03 20:01:00,42.9,27.9,30.16,WNW,298,0.0,0.0,55,0.00,,,0.00,WeatherTracker,2013-02-04 02:01:00,
2013-02-03 20:06:00,42.8,28.2,30.16,NW,323,0.0,0.0,56,0.00,,,0.00,WeatherTracker,2013-02-04 02:06:00,
2013-02-03 20:11:00,42.7,28.1,30.16,NNW,345,0.0,0.0,56,0.00,,,0.00,WeatherTracker,2013-02-04 02:11:00,
2013-02-03 20:16:00,42.5,27.9,30.15,NW,306,0.0,0.0,56,0.00,,,0.00,WeatherTracker,2013-02-04 02:16:00,
2013-02-03 20:21:00,42.4,28.3,30.16,North,9,0.0,0.0,57,0.00,,,0.00,WeatherTracker,2013-02-04 02:21:00,
2013-02-03 20:26:00,42.3,28.2,30.16,North,360,1.0,0.0,57,0.00,,,0.00,WeatherTracker,2013-02-04 02:26:00,
2013-02-03 20:31:00,42.2,28.1,30.16,West,279,0.0,0.0,57,0.00,,,0.00,WeatherTracker,2013-02-04 02:31:00,
2013-02-03 20:36:00,42.1,28.0,30.16,West,271,4.0,0.0,57,0.00,,,0.00,WeatherTracker,2013-02-04 02:36:00,
2013-02-03 20:41:00,42.0,27.9,30.16,NNE,17,0.0,0.0,57,0.00,,,0.00,WeatherTracker,2013-02-04 02:41:00,
2013-02-03 20:46:00,42.0,27.9,30.17,NNW,331,0.0,0.0,57,0.00,,,0.00,WeatherTracker,2013-02-04 02:46:00,
2013-02-03 20:51:00,41.8,28.1,30.17,WSW,243,0.0,0.0,58,0.00,,,0.00,WeatherTracker,2013-02-04 02:51:00,
2013-02-03 20:56:00,41.7,28.0,30.16,North,10,0.0,0.0,58,0.00,,,0.00,WeatherTracker,2013-02-04 02:56:00,
2013-02-03 21:02:00,41.6,28.3,30.16,NW,322,0.0,0.0,59,0.00,,,0.00,WeatherTracker,2013-02-04 03:02:00,
2013-02-03 21:07:00,41.5,28.3,30.16,NW,323,0.0,0.0,59,0.00,,,0.00,WeatherTracker,2013-02-04 03:07:00,
2013-02-03 21:12:00,41.3,28.1,30.16,NW,322,0.0,0.0,59,0.00,,,0.00,WeatherTracker,2013-02-04 03:12:00,
2013-02-03 21:17:00,41.1,28.3,30.16,NW,322,0.0,0.0,60,0.00,,,0.00,WeatherTracker,2013-02-04 03:17:00,
2013-02-03 21:22:00,40.9,28.1,30.17,NW,322,0.0,0.0,60,0.00,,,0.00,WeatherTracker,2013-02-04 03:22:00,
2013-02-03 21:27:00,40.8,28.0,30.17,NW,322,0.0,0.0,60,0.00,,,0.00,WeatherTracker,2013-02-04 03:27:00,
2013-02-03 21:32:00,40.6,28.2,30.17,NW,322,0.0,0.0,61,0.00,,,0.00,WeatherTracker,2013-02-04 03:32:00,
2013-02-03 21:37:00,40.3,28.3,30.18,NW,322,0.0,0.0,62,0.00,,,0.00,WeatherTracker,2013-02-04 03:37:00,
2013-02-03 21:42:00,40.0,28.8,30.18,NW,322,0.0,0.0,64,0.00,,,0.00,WeatherTracker,2013-02-04 03:42:00,
2013-02-03 21:47:00,39.8,29.0,30.17,NW,322,0.0,0.0,65,0.00,,,0.00,WeatherTracker,2013-02-04 03:47:00,
2013-02-03 21:52:00,39.6,28.8,30.18,NW,322,0.0,0.0,65,0.00,,,0.00,WeatherTracker,2013-02-04 03:52:00,
2013-02-03 21:57:00,39.4,29.0,30.18,NW,322,0.0,0.0,66,0.00,,,0.00,WeatherTracker,2013-02-04 03:57:00,
2013-02-03 22:02:00,39.2,29.5,30.18,NW,322,0.0,0.0,68,0.00,,,0.00,WeatherTracker,2013-02-04 04:02:00,
2013-02-03 22:07:00,38.9,29.3,30.18,NW,322,0.0,0.0,68,0.00,,,0.00,WeatherTracker,2013-02-04 04:07:00,
2013-02-03 22:12:00,38.7,29.4,30.17,NW,322,0.0,0.0,69,0.00,,,0.00,WeatherTracker,2013-02-04 04:12:00,
2013-02-03 22:17:00,38.4,29.5,30.17,NW,322,0.0,0.0,70,0.00,,,0.00,WeatherTracker,2013-02-04 04:17:00,
2013-02-03 22:23:00,38.2,29.3,30.17,NW,322,0.0,0.0,70,0.00,,,0.00,WeatherTracker,2013-02-04 04:23:00,
2013-02-03 22:28:00,37.9,29.4,30.17,NW,322,0.0,0.0,71,0.00,,,0.00,WeatherTracker,2013-02-04 04:28:00,
2013-02-03 22:33:00,37.7,29.5,30.17,NW,322,0.0,0.0,72,0.00,,,0.00,WeatherTracker,2013-02-04 04:33:00,
2013-02-03 22:38:00,37.4,29.2,30.17,NW,322,0.0,0.0,72,0.00,,,0.00,WeatherTracker,2013-02-04 04:38:00,
2013-02-03 22:43:00,37.3,29.1,30.17,NW,322,0.0,0.0,72,0.00,,,0.00,WeatherTracker,2013-02-04 04:43:00,
2013-02-03 22:48:00,37.1,29.3,30.17,NW,322,0.0,0.0,73,0.00,,,0.00,WeatherTracker,2013-02-04 04:48:00,
2013-02-03 22:53:00,37.0,29.2,30.17,NW,322,0.0,0.0,73,0.00,,,0.00,WeatherTracker,2013-02-04 04:53:00,
2013-02-03 22:58:00,36.9,29.1,30.16,NW,322,0.0,0.0,73,0.00,,,0.00,WeatherTracker,2013-02-04 04:58:00,
2013-02-03 23:00:00,36.8,29.3,30.16,NW,322,0.0,0.0,74,0.00,,,0.00,WeatherTracker,2013-02-04 05:00:00,
2013-02-03 23:05:00,36.7,29.2,30.16,NW,322,0.0,0.0,74,0.00,,,0.00,WeatherTracker,2013-02-04 05:05:00,
2013-02-03 23:10:00,36.6,29.1,30.16,NW,322,0.0,0.0,74,0.00,,,0.00,WeatherTracker,2013-02-04 05:10:00,
2013-02-03 23:15:00,36.5,29.3,30.16,NW,322,0.0,0.0,75,0.00,,,0.00,WeatherTracker,2013-02-04 05:15:00,
2013-02-03 23:20:00,36.4,29.2,30.16,NW,322,0.0,0.0,75,0.00,,,0.00,WeatherTracker,2013-02-04 05:20:00,
2013-02-03 23:25:00,36.4,29.2,30.16,NW,322,0.0,0.0,75,0.00,,,0.00,WeatherTracker,2013-02-04 05:25:00,
2013-02-03 23:31:00,36.4,29.2,30.16,NW,322,0.0,0.0,75,0.00,,,0.00,WeatherTracker,2013-02-04 05:31:00,
2013-02-03 23:36:00,36.3,29.1,30.15,NW,322,0.0,0.0,75,0.00,,,0.00,WeatherTracker,2013-02-04 05:36:00,
2013-02-03 23:41:00,36.1,29.0,30.15,NW,322,0.0,0.0,75,0.00,,,0.00,WeatherTracker,2013-02-04 05:41:00,
2013-02-03 23:46:00,36.0,28.9,30.15,NW,322,0.0,0.0,75,0.00,,,0.00,WeatherTracker,2013-02-04 05:46:00,
2013-02-03 23:51:00,35.7,28.9,30.15,NW,322,0.0,0.0,76,0.00,,,0.00,WeatherTracker,2013-02-04 05:51:00,
2013-02-03 23:56:00,35.4,28.9,30.15,NW,322,0.0,0.0,77,0.00,,,0.00,WeatherTracker,2013-02-04 05:56:00,